Time;durP1;ratioP1;P1;durP2;ratioP2;P2;SDS_P1;SDS_P2;PMS_P1;PMS_P2;Temp;Humidity;BMP_temperature;BMP_pressure;BME280_temperature;BME280_humidity;BME280_pressure;Samples;Min_cycle;Max_cycle;Signal;HPM_P1;HPM_P2
2021/08/05 00:00:23;;;;;;;9.73;4.35;;;;;;;13.01;100.00;95456.91;1047132;28;20122;-66
2021/08/05 00:00:54;;;;;;;10.10;4.57;;;;;;;12.95;100.00;95442.25;1038686;28;20040;-67
2021/08/05 00:01:27;;;;;;;8.05;4.60;;;;;;;13.02;100.00;95462.97;1040703;28;20025;-66
2021/08/05 00:01:58;;;;;;;9.25;4.28;;;;;;;13.02;100.00;95462.97;1038396;28;20022;-67
2021/08/05 00:02:28;;;;;;;7.72;4.40;;;;;;;13.00;100.00;95454.53;1039317;28;20761;-66
2021/08/05 00:02:59;;;;;;;6.82;3.85;;;;;;;13.03;100.00;95453.97;1043061;28;20495;-65
2021/08/05 00:03:29;;;;;;;12.70;4.72;;;;;;;13.05;100.00;95462.38;1043085;28;20506;-66
2021/08/05 00:03:59;;;;;;;9.30;5.15;;;;;;;13.01;100.00;95456.91;1043061;28;20036;-66
2021/08/05 00:04:30;;;;;;;11.45;5.07;;;;;;;13.02;100.00;95457.69;1043143;28;20029;-68
2021/08/05 00:05:00;;;;;;;10.32;5.22;;;;;;;13.02;100.00;95452.41;1038133;28;20112;-69
2021/08/05 00:05:31;;;;;;;12.70;4.80;;;;;;;13.01;100.00;95461.38;1039015;28;20037;-66
2021/08/05 00:06:01;;;;;;;7.72;4.65;;;;;;;13.01;100.00;95456.09;1038900;28;20021;-66
2021/08/05 00:06:32;;;;;;;6.85;4.35;;;;;;;13.01;100.00;95453.47;1040802;28;20037;-66
2021/08/05 00:07:02;;;;;;;11.40;5.18;;;;;;;13.03;100.00;95449.50;1038837;28;20021;-66
2021/08/05 00:07:33;;;;;;;7.28;4.45;;;;;;;13.02;100.00;95453.19;1038981;28;20036;-67
2021/08/05 00:08:04;;;;;;;7.25;4.65;;;;;;;13.04;100.00;95455.53;1038343;28;20600;-67
2021/08/05 00:08:34;;;;;;;9.85;4.88;;;;;;;13.04;100.00;95447.63;1035075;28;20101;-63
2021/08/05 00:09:05;;;;;;;14.57;4.53;;;;;;;13.02;100.00;95453.19;1038692;28;20374;-67
2021/08/05 00:09:36;;;;;;;12.45;5.25;;;;;;;13.06;100.00;95454.19;1034985;28;20022;-64
2021/08/05 00:10:07;;;;;;;12.93;5.88;;;;;;;13.07;100.00;95450.47;1038535;28;20029;-66
2021/08/05 00:10:37;;;;;;;17.65;6.03;;;;;;;13.06;100.00;95448.91;1034916;28;20523;-66
2021/08/05 00:11:08;;;;;;;11.45;4.93;;;;;;;13.07;100.00;95449.69;1034875;28;20720;-66
2021/08/05 00:11:38;;;;;;;12.15;5.05;;;;;;;13.09;100.00;95453.63;1041497;28;20483;-66
2021/08/05 00:12:10;;;;;;;14.18;5.38;;;;;;;13.10;100.00;95454.41;1042329;28;20413;-66
2021/08/05 00:12:40;;;;;;;12.73;5.68;;;;;;;13.11;100.00;95445.41;1043069;28;20057;-65
2021/08/05 00:13:11;;;;;;;14.10;5.95;;;;;;;13.11;100.00;95455.97;1038811;28;21178;-66
2021/08/05 00:13:41;;;;;;;14.27;5.65;;;;;;;13.12;100.00;95449.66;1042433;28;20037;-67
2021/08/05 00:14:12;;;;;;;15.80;5.95;;;;;;;13.12;100.00;95450.41;1030993;28;20052;-65
2021/08/05 00:14:42;;;;;;;13.30;5.50;;;;;;;13.08;100.00;95440.75;1034906;28;20018;-66
2021/08/05 00:15:13;;;;;;;16.35;5.70;;;;;;;13.14;100.00;95450.13;1038651;28;20526;-66
2021/08/05 00:15:43;;;;;;;11.05;5.65;;;;;;;13.15;100.00;95454.34;1035219;28;20041;-66
2021/08/05 00:16:14;;;;;;;11.65;5.50;;;;;;;13.11;100.00;95448.88;1038258;28;20037;-66
2021/08/05 00:16:44;;;;;;;12.95;5.78;;;;;;;13.17;100.00;95454.81;1034843;28;20030;-66
2021/08/05 00:17:15;;;;;;;13.57;5.68;;;;;;;13.15;100.00;95454.34;1030736;28;20029;-66
2021/08/05 00:17:45;;;;;;;15.10;5.05;;;;;;;13.18;100.00;95456.41;1033048;28;20411;-66
2021/08/05 00:18:16;;;;;;;12.45;5.20;;;;;;;13.18;100.00;95456.41;1035489;28;20030;-66
2021/08/05 00:18:46;;;;;;;8.95;4.93;;;;;;;13.18;100.00;95451.13;1043058;28;20370;-66
2021/08/05 00:19:16;;;;;;;7.88;4.82;;;;;;;13.18;100.00;95451.13;1042584;28;20108;-64
2021/08/05 00:19:47;;;;;;;7.22;4.28;;;;;;;13.13;100.00;95449.34;1047284;28;20036;-67
2021/08/05 00:20:17;;;;;;;9.65;5.25;;;;;;;12.99;100.00;95419.53;1038726;28;20477;-63
2021/08/05 00:20:48;;;;;;;10.60;5.25;;;;;;;13.17;100.00;95455.59;1035028;28;20041;-66
2021/08/05 00:21:19;;;;;;;9.50;5.30;;;;;;;13.13;100.00;95443.28;1034419;28;20109;-66
2021/08/05 00:21:50;;;;;;;9.98;4.70;;;;;;;13.12;100.00;95447.00;1030346;28;20027;-64
2021/08/05 00:22:20;;;;;;;11.95;4.93;;;;;;;13.15;100.00;95451.72;1034983;28;20272;-64
2021/08/05 00:22:51;;;;;;;9.32;4.30;;;;;;;13.15;100.00;95452.50;1038403;28;20030;-64
2021/08/05 00:23:21;;;;;;;8.73;4.72;;;;;;;13.15;100.00;95446.44;1034717;28;20034;-64
2021/08/05 00:23:52;;;;;;;15.32;4.70;;;;;;;13.14;100.00;95450.13;1034926;28;20100;-65
2021/08/05 00:24:22;;;;;;;12.57;5.07;;;;;;;13.17;100.00;95452.19;1038845;28;20033;-62
2021/08/05 00:24:52;;;;;;;12.60;5.35;;;;;;;13.15;100.00;95452.50;1039080;28;20032;-64
2021/08/05 00:25:23;;;;;;;10.13;4.88;;;;;;;13.16;100.00;95458.53;1042661;28;20029;-64
2021/08/05 00:25:53;;;;;;;6.10;4.40;;;;;;;13.12;100.00;95447.00;1038730;28;20040;-64
2021/08/05 00:26:24;;;;;;;10.30;4.75;;;;;;;13.14;100.00;95456.16;1039092;28;20565;-65
2021/08/05 00:26:54;;;;;;;6.97;3.90;;;;;;;13.14;100.00;95452.75;1038645;28;20446;-61
2021/08/05 00:27:25;;;;;;;10.13;5.30;;;;;;;13.16;100.00;95459.31;1034737;28;20392;-64
2021/08/05 00:27:55;;;;;;;9.95;5.05;;;;;;;13.19;100.00;95455.34;1030575;28;20033;-65
2021/08/05 00:28:26;;;;;;;9.63;5.20;;;;;;;13.17;100.00;95457.47;1030735;28;20089;-64
2021/08/05 00:28:56;;;;;;;10.07;5.15;;;;;;;13.19;100.00;95458.75;1033075;28;20041;-63
2021/08/05 00:29:27;;;;;;;8.93;5.00;;;;;;;13.18;100.00;95456.41;1034899;28;20030;-64
2021/08/05 00:29:57;;;;;;;7.53;4.53;;;;;;;13.19;100.00;95461.38;1038779;28;20463;-61
2021/08/05 00:30:29;;;;;;;6.50;4.68;;;;;;;13.17;100.00;95458.22;1038591;28;20029;-65
2021/08/05 00:31:00;;;;;;;13.80;4.75;;;;;;;13.13;100.00;95451.97;1039058;28;20021;-64
2021/08/05 00:31:30;;;;;;;8.40;4.70;;;;;;;13.15;100.00;95454.34;1042965;28;20350;-65
2021/08/05 00:32:01;;;;;;;8.98;4.35;;;;;;;13.13;100.00;95451.97;1042022;28;20029;-61
2021/08/05 00:32:31;;;;;;;5.07;3.58;;;;;;;13.12;100.00;95458.31;1051225;28;20669;-64
2021/08/05 00:33:02;;;;;;;8.15;3.92;;;;;;;13.10;100.00;95457.03;1051124;28;20412;-64
2021/08/05 00:33:32;;;;;;;12.48;4.75;;;;;;;13.09;100.00;95460.75;1051392;28;20602;-64
2021/08/05 00:34:02;;;;;;;8.52;4.88;;;;;;;13.10;100.00;95460.44;1049865;28;20929;-65
2021/08/05 00:34:33;;;;;;;9.20;5.32;;;;;;;13.09;100.00;95456.25;1051769;28;20024;-64
2021/08/05 00:35:05;;;;;;;7.88;4.22;;;;;;;13.10;100.00;95457.03;1042939;28;20033;-65
2021/08/05 00:35:35;;;;;;;6.82;4.30;;;;;;;13.09;100.00;95458.13;1042728;28;20671;-64
2021/08/05 00:36:06;;;;;;;8.27;4.65;;;;;;;13.08;100.00;95451.28;1042738;28;20260;-64
2021/08/05 00:36:36;;;;;;;12.68;4.95;;;;;;;13.03;100.00;95449.50;1035001;28;20025;-64
2021/08/05 00:37:07;;;;;;;10.18;4.55;;;;;;;13.08;100.00;95459.19;1030086;28;20034;-61
2021/08/05 00:37:37;;;;;;;10.45;4.68;;;;;;;13.05;100.00;95457.91;1030892;28;20425;-65
2021/08/05 00:38:08;;;;;;;6.13;3.50;;;;;;;13.03;100.00;95453.97;1034528;28;20030;-65
2021/08/05 00:38:38;;;;;;;4.75;3.55;;;;;;;13.03;100.00;95456.63;1039165;28;20036;-64
2021/08/05 00:39:08;;;;;;;6.20;3.58;;;;;;;13.01;100.00;95456.09;1042695;28;20049;-65
2021/08/05 00:39:39;;;;;;;6.97;3.78;;;;;;;13.00;100.00;95451.91;1042845;28;20033;-64
2021/08/05 00:40:09;;;;;;;10.63;3.80;;;;;;;13.00;100.00;95454.53;1047161;28;20035;-65
2021/08/05 00:40:41;;;;;;;8.93;4.47;;;;;;;13.00;100.00;95454.53;1045124;28;20591;-61
2021/08/05 00:41:12;;;;;;;11.38;3.75;;;;;;;12.96;100.00;95455.09;1038794;28;20056;-64
2021/08/05 00:41:43;;;;;;;11.63;3.80;;;;;;;12.90;100.00;95453.59;1042742;28;20255;-63
2021/08/05 00:42:13;;;;;;;9.07;4.38;;;;;;;12.94;100.00;95452.00;1042538;28;21090;-64
2021/08/05 00:42:44;;;;;;;6.45;3.95;;;;;;;12.92;100.00;95456.75;1047423;28;20505;-65
2021/08/05 00:43:14;;;;;;;6.07;4.32;;;;;;;12.94;100.00;95456.44;1047322;28;20016;-65
2021/08/05 00:43:45;;;;;;;8.23;3.80;;;;;;;12.94;100.00;95453.81;1047384;28;20071;-65
2021/08/05 00:44:15;;;;;;;12.52;5.10;;;;;;;12.93;100.00;95450.41;1046886;28;20017;-64
2021/08/05 00:44:46;;;;;;;4.68;3.67;;;;;;;12.95;100.00;95458.03;1030818;28;20069;-64
2021/08/05 00:45:16;;;;;;;8.52;4.30;;;;;;;12.96;100.00;95460.38;1030839;28;20026;-64
2021/08/05 00:45:47;;;;;;;8.20;3.60;;;;;;;12.93;100.00;95450.41;1030925;28;20073;-64
2021/08/05 00:46:17;;;;;;;8.57;4.03;;;;;;;12.96;100.00;95449.84;1034932;28;20514;-64
2021/08/05 00:46:48;;;;;;;8.32;4.25;;;;;;;12.94;100.00;95452.00;1043529;28;20047;-65
2021/08/05 00:47:18;;;;;;;9.70;4.50;;;;;;;12.96;100.00;95460.38;1042970;28;20033;-63
2021/08/05 00:47:49;;;;;;;9.48;4.55;;;;;;;12.95;100.00;95458.03;1042911;28;20041;-64
2021/08/05 00:48:19;;;;;;;8.20;4.65;;;;;;;12.94;100.00;95457.25;1047433;28;20784;-64
2021/08/05 00:48:49;;;;;;;9.48;4.57;;;;;;;12.92;100.00;95454.13;1043016;28;20497;-64
2021/08/05 00:49:20;;;;;;;12.00;4.60;;;;;;;12.93;100.00;95452.25;1041094;28;20033;-63
2021/08/05 00:49:50;;;;;;;9.20;4.55;;;;;;;12.92;100.00;95455.97;1043348;28;20091;-64
2021/08/05 00:50:21;;;;;;;5.82;4.18;;;;;;;12.93;100.00;95455.69;1039056;28;20026;-62
2021/08/05 00:50:51;;;;;;;10.77;4.40;;;;;;;12.92;100.00;95456.75;1042983;28;20105;-65
2021/08/05 00:51:22;;;;;;;5.93;4.00;;;;;;;12.92;100.00;95458.59;1030704;28;20030;-61
2021/08/05 00:51:52;;;;;;;9.63;4.65;;;;;;;12.92;100.00;95453.34;1030056;28;20027;-62
2021/08/05 00:52:23;;;;;;;12.05;4.22;;;;;;;12.91;100.00;95457.81;1035003;28;20033;-65
2021/08/05 00:52:53;;;;;;;8.75;4.65;;;;;;;12.91;100.00;95452.56;1034421;28;20819;-64
2021/08/05 00:53:24;;;;;;;6.60;4.60;;;;;;;12.88;100.00;95453.13;1038968;28;20025;-65
2021/08/05 00:53:55;;;;;;;9.30;5.07;;;;;;;12.86;100.00;95436.81;1035272;28;20022;-64
2021/08/05 00:54:25;;;;;;;7.65;4.28;;;;;;;12.92;100.00;95454.13;1034370;28;20273;-64
2021/08/05 00:54:56;;;;;;;8.48;4.60;;;;;;;12.92;100.00;95454.13;1035019;28;20034;-64
2021/08/05 00:55:26;;;;;;;8.68;4.07;;;;;;;12.87;100.00;95446.28;1042972;28;20513;-65
2021/08/05 00:55:57;;;;;;;8.75;4.25;;;;;;;12.92;100.00;95456.75;1038667;28;20052;-64
2021/08/05 00:56:28;;;;;;;10.23;4.72;;;;;;;12.92;100.00;95455.97;1039841;28;20029;-64
2021/08/05 00:56:59;;;;;;;8.48;4.53;;;;;;;12.93;100.00;95453.03;1039602;28;20029;-65
2021/08/05 00:57:29;;;;;;;11.65;5.22;;;;;;;12.92;100.00;95451.47;1035843;28;20249;-64
2021/08/05 00:58:00;;;;;;;8.05;5.15;;;;;;;12.89;100.00;95454.69;1043906;28;20075;-64
2021/08/05 00:58:30;;;;;;;12.13;5.43;;;;;;;12.88;100.00;95450.50;1043865;28;20112;-64
2021/08/05 00:59:01;;;;;;;10.55;5.07;;;;;;;12.95;100.00;95458.03;1039683;28;20027;-64
2021/08/05 00:59:31;;;;;;;9.57;5.00;;;;;;;12.91;100.00;95444.66;1042021;28;20680;-64
2021/08/05 01:00:02;;;;;;;12.10;5.53;;;;;;;12.92;100.00;95456.75;1035615;28;20546;-64
2021/08/05 01:00:33;;;;;;;10.35;4.88;;;;;;;12.95;100.00;95453.56;1031995;28;20022;-64
2021/08/05 01:01:11;;;;;;;10.90;4.75;;;;;;;12.90;100.00;95452.81;1032549;28;20269;-61
2021/08/05 01:01:45;;;;;;;6.60;4.35;;;;;;;12.94;100.00;95453.81;1032260;28;20515;-64
2021/08/05 01:02:22;;;;;;;10.20;4.47;;;;;;;12.91;100.00;95451.75;1035656;28;20275;-64
2021/08/05 01:02:59;;;;;;;10.25;3.97;;;;;;;12.91;100.00;95454.38;1031370;28;20019;-64
2021/08/05 01:03:32;;;;;;;6.93;4.25;;;;;;;12.90;100.00;95450.19;1048333;28;20270;-65
2021/08/05 01:04:02;;;;;;;7.63;4.10;;;;;;;12.90;100.00;95452.81;1047948;28;20271;-64
2021/08/05 01:04:33;;;;;;;9.63;4.60;;;;;;;12.87;100.00;95451.53;1043628;28;20808;-64
2021/08/05 01:05:04;;;;;;;12.38;4.65;;;;;;;12.88;100.00;95453.13;1035528;28;20069;-64
2021/08/05 01:05:40;;;;;;;7.38;4.45;;;;;;;12.89;100.00;95454.69;1043810;28;20032;-65
2021/08/05 01:06:41;;;;;;;10.57;4.50;;;;;;;12.87;100.00;95450.75;1039446;28;20021;-64
2021/08/05 01:07:14;;;;;;;9.00;3.95;;;;;;;12.86;100.00;95449.97;1031998;28;20266;-64
2021/08/05 01:07:51;;;;;;;11.68;4.43;;;;;;;12.79;100.00;95436.38;1032642;28;20505;-64
2021/08/05 01:08:23;;;;;;;7.15;4.03;;;;;;;12.86;100.00;95455.25;1036018;28;20355;-65
2021/08/05 01:09:25;;;;;;;7.05;3.88;;;;;;;12.85;100.00;95453.69;1039513;28;20263;-65
2021/08/05 01:09:56;;;;;;;;;;;;;;;12.84;100.00;95446.84;1044465;28;20247;-64
2021/08/05 01:10:28;;;;;;;6.40;4.07;;;;;;;12.77;100.00;95438.50;1035982;28;20007;-64
2021/08/05 01:11:20;;;;;;;9.60;4.30;;;;;;;12.86;100.00;95449.19;1035673;28;20280;-67
2021/08/05 01:12:00;;;;;;;8.07;4.43;;;;;;;12.83;100.00;95439.22;1030849;28;20837;-65
2021/08/05 01:12:53;;;;;;;6.85;4.10;;;;;;;12.88;100.00;95447.84;1031713;28;20801;-64
2021/08/05 01:13:31;;;;;;;6.38;3.83;;;;;;;12.85;100.00;95448.41;1032193;28;20117;-67
2021/08/05 01:14:04;;;;;;;7.85;4.45;;;;;;;12.83;100.00;95447.91;1039868;28;20610;-64
2021/08/05 01:14:39;;;;;;;6.55;4.28;;;;;;;12.77;100.00;95435.88;1043035;28;20256;-64
2021/08/05 01:15:30;;;;;;;8.88;5.10;;;;;;;12.84;100.00;95449.47;1039861;28;20271;-66
2021/08/05 01:16:00;;;;;;;12.30;4.90;;;;;;;12.83;100.00;95442.66;1034762;28;20276;-65
2021/08/05 01:16:32;;;;;;;7.43;4.78;;;;;;;12.82;100.00;95442.94;1039755;28;20028;-64
2021/08/05 01:17:03;;;;;;;9.65;5.18;;;;;;;12.85;100.00;95445.00;1035852;28;20022;-61
2021/08/05 01:17:36;;;;;;;9.68;5.35;;;;;;;12.79;100.00;95440.88;1027289;28;20292;-62
2021/08/05 01:18:08;;;;;;;9.32;4.85;;;;;;;12.84;100.00;95440.78;1038107;28;20087;-61
2021/08/05 01:18:39;;;;;;;10.80;4.97;;;;;;;12.69;100.00;95418.09;1039872;28;20264;-64
2021/08/05 01:19:12;;;;;;;9.57;4.57;;;;;;;12.81;100.00;95444.78;1027486;28;20601;-64
2021/08/05 01:19:51;;;;;;;5.63;4.00;;;;;;;12.84;100.00;95444.19;1023918;28;20055;-65
2021/08/05 01:20:22;;;;;;;7.35;4.28;;;;;;;12.86;100.00;95444.72;1027453;28;20316;-64
2021/08/05 01:20:52;;;;;;;5.38;3.78;;;;;;;12.84;100.00;95446.06;1031495;28;20288;-64
2021/08/05 01:21:52;;;;;;;8.45;4.43;;;;;;;12.85;100.00;95448.41;1034823;28;20625;-64
2021/08/05 01:22:47;;;;;;;6.78;4.15;;;;;;;12.84;100.00;95446.84;1035729;28;20022;-60
2021/08/05 01:23:26;;;;;;;10.57;5.07;;;;;;;12.85;100.00;95445.78;1032055;28;20029;-64
2021/08/05 01:24:02;;;;;;;10.60;5.50;;;;;;;12.85;100.00;95443.16;1035973;28;20261;-64
2021/08/05 01:24:35;;;;;;;10.38;5.32;;;;;;;12.79;100.00;95435.59;1036789;28;20261;-61
2021/08/05 01:25:27;;;;;;;14.18;4.40;;;;;;;12.83;100.00;95442.66;1036653;28;20304;-67
2021/08/05 01:25:58;;;;;;;11.25;4.28;;;;;;;12.80;100.00;95437.94;1027088;28;20297;-64
2021/08/05 01:26:31;;;;;;;10.38;4.70;;;;;;;12.81;100.00;95442.16;1027660;28;20605;-64
2021/08/05 01:27:03;;;;;;;8.05;4.55;;;;;;;12.82;100.00;95438.44;1038707;28;20631;-63
2021/08/05 01:27:33;;;;;;;12.00;5.13;;;;;;;12.78;100.00;95424.28;1039008;28;20804;-63
2021/08/05 01:28:04;;;;;;;8.55;4.97;;;;;;;12.82;100.00;95440.31;1035069;28;20260;-63
2021/08/05 01:28:35;;;;;;;9.30;4.75;;;;;;;12.80;100.00;95443.22;1031506;28;20018;-63
2021/08/05 01:29:05;;;;;;;7.88;4.72;;;;;;;12.71;100.00;95423.88;1035207;28;20112;-63
2021/08/05 01:29:36;;;;;;;8.75;5.10;;;;;;;12.80;100.00;95435.31;1035781;28;20539;-64
2021/08/05 01:30:07;;;;;;;8.75;4.47;;;;;;;12.73;100.00;95432.25;1031225;28;20021;-64
2021/08/05 01:30:37;;;;;;;6.80;4.63;;;;;;;12.77;100.00;95437.72;1035104;28;20045;-63
2021/08/05 01:31:08;;;;;;;8.88;4.80;;;;;;;12.79;100.00;95439.03;1031354;28;20265;-64
2021/08/05 01:31:38;;;;;;;9.23;5.30;;;;;;;12.80;100.00;95440.56;1031438;28;20030;-63
2021/08/05 01:32:08;;;;;;;9.82;5.25;;;;;;;12.78;100.00;95439.31;1026303;28;20405;-63
2021/08/05 01:32:39;;;;;;;10.48;5.32;;;;;;;12.69;100.00;95424.13;1027500;28;20449;-63
2021/08/05 01:33:10;;;;;;;12.43;5.10;;;;;;;12.76;100.00;95436.16;1027578;28;20077;-63
2021/08/05 01:33:40;;;;;;;12.07;5.38;;;;;;;12.73;100.00;95432.25;1031864;28;20060;-63
2021/08/05 01:34:15;;;;;;;7.57;4.32;;;;;;;12.70;100.00;95435.44;1042900;28;20021;-60
2021/08/05 01:34:45;;;;;;;8.55;5.15;;;;;;;12.78;100.00;95437.47;1039792;28;20028;-63
2021/08/05 01:35:16;;;;;;;7.28;4.90;;;;;;;12.78;100.00;95434.06;1039612;28;20263;-62
2021/08/05 01:35:48;;;;;;;10.55;4.40;;;;;;;12.67;100.00;95417.59;1029018;28;20022;-67
2021/08/05 01:36:19;;;;;;;7.38;4.97;;;;;;;12.75;100.00;95432.75;1035538;28;20033;-60
2021/08/05 01:36:49;;;;;;;10.88;4.72;;;;;;;12.69;100.00;95428.63;1039583;28;20264;-64
2021/08/05 01:37:20;;;;;;;9.73;4.57;;;;;;;12.77;100.00;95435.09;1037292;28;20036;-64
2021/08/05 01:37:50;;;;;;;7.65;4.50;;;;;;;12.72;100.00;95434.09;1031681;28;20027;-64
2021/08/05 01:38:21;;;;;;;10.18;5.13;;;;;;;12.75;100.00;95432.75;1027373;28;20023;-64
2021/08/05 01:38:51;;;;;;;7.32;4.90;;;;;;;12.75;100.00;95432.75;1027420;28;20034;-64
2021/08/05 01:39:21;;;;;;;12.48;4.53;;;;;;;12.77;100.00;95440.34;1027484;28;20504;-63
2021/08/05 01:39:52;;;;;;;8.82;4.85;;;;;;;12.73;100.00;95434.88;1027435;28;20479;-64
2021/08/05 01:40:23;;;;;;;10.30;4.72;;;;;;;12.72;100.00;95436.72;1027661;28;20042;-64
2021/08/05 01:40:53;;;;;;;9.88;4.90;;;;;;;12.64;100.00;95420.78;1035238;28;20021;-63
2021/08/05 01:41:24;;;;;;;11.63;5.35;;;;;;;12.72;100.00;95431.47;1031544;28;20069;-64
2021/08/05 01:41:55;;;;;;;6.85;4.82;;;;;;;12.72;100.00;95425.44;1031023;28;20018;-62
2021/08/05 01:42:25;;;;;;;8.95;5.47;;;;;;;12.75;100.00;95430.13;1028744;28;20839;-64
2021/08/05 01:42:56;;;;;;;6.47;4.93;;;;;;;12.72;100.00;95425.44;1027659;28;20030;-63
2021/08/05 01:43:26;;;;;;;10.77;4.88;;;;;;;12.74;100.00;95426.72;1031281;28;20022;-64
2021/08/05 01:43:57;;;;;;;9.25;5.15;;;;;;;12.77;100.00;95427.97;1040431;28;20021;-64
2021/08/05 01:44:27;;;;;;;9.25;5.60;;;;;;;12.76;100.00;95428.28;1033476;28;20026;-63
2021/08/05 01:44:58;;;;;;;8.95;4.68;;;;;;;12.72;100.00;95433.31;1034266;28;20076;-63
2021/08/05 01:45:28;;;;;;;10.43;5.50;;;;;;;12.67;100.00;95418.34;1027152;28;20037;-64
2021/08/05 01:45:59;;;;;;;8.45;5.07;;;;;;;12.73;100.00;95426.97;1030368;28;20029;-62
2021/08/05 01:46:29;;;;;;;6.90;4.85;;;;;;;12.69;100.00;95418.88;1031264;28;20058;-64
2021/08/05 01:47:00;;;;;;;9.93;5.13;;;;;;;12.74;100.00;95423.28;1035415;28;20022;-60
2021/08/05 01:47:30;;;;;;;6.43;4.65;;;;;;;12.72;100.00;95418.31;1035102;28;20025;-63
2021/08/05 01:48:01;;;;;;;9.60;4.78;;;;;;;12.73;100.00;95424.34;1035293;28;20084;-64
2021/08/05 01:48:31;;;;;;;9.70;5.80;;;;;;;12.75;100.00;95424.88;1035515;28;20072;-63
2021/08/05 01:49:02;;;;;;;6.82;4.78;;;;;;;12.75;100.00;95422.22;1034685;28;20026;-62
2021/08/05 01:49:32;;;;;;;7.70;4.78;;;;;;;12.78;100.00;95421.66;1031180;28;20035;-67
2021/08/05 01:50:03;;;;;;;10.55;6.68;;;;;;;12.69;100.00;95402.28;1035475;28;20036;-66
2021/08/05 01:50:33;;;;;;;11.20;5.50;;;;;;;12.80;100.00;95416.88;1027100;28;20090;-64
2021/08/05 01:51:04;;;;;;;9.63;5.90;;;;;;;12.80;100.00;95422.16;1030556;28;20030;-63
2021/08/05 01:51:34;;;;;;;9.73;4.95;;;;;;;12.76;100.00;95407.22;1031592;28;20018;-64
2021/08/05 01:52:05;;;;;;;16.65;5.15;;;;;;;12.81;100.00;95421.09;1025650;28;20389;-63
2021/08/05 01:52:35;;;;;;;7.93;3.97;;;;;;;12.82;100.00;95416.63;1024696;28;20453;-63
2021/08/05 01:53:05;;;;;;;11.43;4.90;;;;;;;12.83;100.00;95423.44;1031183;28;20022;-64
2021/08/05 01:53:36;;;;;;;11.32;4.60;;;;;;;12.73;100.00;95411.97;1034806;28;20044;-64
2021/08/05 01:54:06;;;;;;;9.48;4.20;;;;;;;12.81;100.00;95426.38;1035465;28;20014;-62
2021/08/05 01:54:37;;;;;;;750.15;149.98;;;;;;;12.81;100.00;95421.09;1035942;28;20533;-64
2021/08/05 01:55:08;;;;;;;4.38;4.18;;;;;;;12.82;100.00;95425.28;1041927;28;20025;-64
2021/08/05 01:55:38;;;;;;;1999.90;999.90;;;;;;;12.79;100.00;95420.59;1042478;28;20032;-64
2021/08/05 01:56:09;;;;;;;689.80;299.13;;;;;;;12.80;100.00;95424.00;1038094;28;20271;-64
2021/08/05 01:56:39;;;;;;;1999.90;999.90;;;;;;;12.81;100.00;95423.72;1047689;28;20020;-63
2021/08/05 01:57:10;;;;;;;820.22;315.15;;;;;;;12.80;100.00;95424.00;1047484;28;20069;-64
2021/08/05 01:57:40;;;;;;;210.32;36.42;;;;;;;12.81;100.00;95421.09;1042603;28;20025;-61
2021/08/05 01:58:11;;;;;;;66.88;11.52;;;;;;;12.85;100.00;95426.56;1043475;28;20036;-64
2021/08/05 01:58:41;;;;;;;9.82;5.80;;;;;;;12.84;100.00;95420.50;1033793;28;20029;-65
2021/08/05 01:59:12;;;;;;;14.00;6.05;;;;;;;12.82;100.00;95422.66;1027312;28;20081;-64
2021/08/05 01:59:42;;;;;;;41.70;9.32;;;;;;;12.85;100.00;95422.09;1034734;28;20018;-64
2021/08/05 02:00:13;;;;;;;137.85;28.55;;;;;;;12.78;100.00;95413.75;1036807;28;20034;-63
2021/08/05 02:00:43;;;;;;;151.32;38.72;;;;;;;12.87;100.00;95409.41;1047831;28;20025;-65
2021/08/05 02:01:20;;;;;;;13.93;7.45;;;;;;;12.83;100.00;95413.69;1038803;28;20017;-65
2021/08/05 02:01:50;;;;;;;37.08;8.52;;;;;;;12.86;100.00;95412.34;1037165;28;20018;-64
2021/08/05 02:02:21;;;;;;;141.80;11.10;;;;;;;12.88;100.00;95418.88;1035355;28;20265;-64
2021/08/05 02:02:53;;;;;;;11.45;7.55;;;;;;;12.89;100.00;95422.31;1036581;28;20033;-64
2021/08/05 02:03:24;;;;;;;10.75;7.57;;;;;;;12.92;100.00;95422.50;1039667;28;20029;-65
2021/08/05 02:04:02;;;;;;;10.45;6.75;;;;;;;12.87;100.00;95419.94;1038470;28;20749;-64
2021/08/05 02:04:44;;;;;;;12.90;7.03;;;;;;;12.91;100.00;95415.69;1043686;28;20031;-64
2021/08/05 02:05:48;;;;;;;12.75;7.10;;;;;;;12.95;100.00;95426.44;1042224;28;20346;-64
2021/08/05 02:06:20;;;;;;;16.05;6.95;;;;;;;12.87;100.00;95413.88;1034018;28;20279;-65
2021/08/05 02:07:11;;;;;;;13.68;7.38;;;;;;;12.94;100.00;95423.03;1039305;28;20268;-65
2021/08/05 02:07:52;;;;;;;10.95;6.90;;;;;;;12.90;100.00;95418.59;1030507;28;20268;-65
2021/08/05 02:08:26;;;;;;;10.32;6.95;;;;;;;12.91;100.00;95418.31;1035129;28;20893;-60
2021/08/05 02:09:11;;;;;;;10.82;7.03;;;;;;;12.94;100.00;95420.38;1035390;28;20253;-65
2021/08/05 02:09:46;;;;;;;12.55;7.00;;;;;;;12.91;100.00;95420.97;1034613;28;20346;-64
2021/08/05 02:10:25;;;;;;;16.02;7.55;;;;;;;12.91;100.00;95418.31;1030422;28;20831;-64
2021/08/05 02:10:57;;;;;;;11.23;7.60;;;;;;;12.89;100.00;95420.44;1039239;28;20270;-64
2021/08/05 02:11:30;;;;;;;14.68;8.45;;;;;;;12.87;100.00;95419.94;1041089;28;20737;-63
2021/08/05 02:12:01;;;;;;;10.95;7.28;;;;;;;12.84;100.00;95415.25;1034400;28;20367;-64
2021/08/05 02:12:46;;;;;;;15.60;7.68;;;;;;;12.82;100.00;95424.50;1036852;28;21088;-64
2021/08/05 02:13:30;;;;;;;10.80;7.32;;;;;;;12.82;100.00;95421.88;1038975;28;20034;-64
2021/08/05 02:14:01;;;;;;;15.32;7.90;;;;;;;12.84;100.00;95420.50;1039036;28;20260;-64
2021/08/05 02:14:32;;;;;;;13.10;8.35;;;;;;;12.82;100.00;95412.13;1031072;28;20266;-64
2021/08/05 02:15:02;;;;;;;20.00;10.18;;;;;;;12.80;100.00;95406.34;1031058;28;20269;-64
2021/08/05 02:15:34;;;;;;;13.02;8.27;;;;;;;12.81;100.00;95421.09;1027114;28;20053;-65
2021/08/05 02:16:06;;;;;;;15.85;8.35;;;;;;;12.76;100.00;95418.53;1029100;28;20026;-63
2021/08/05 02:16:37;;;;;;;12.18;8.60;;;;;;;12.68;100.00;95403.38;1031591;28;20268;-64
2021/08/05 02:17:08;;;;;;;14.60;9.35;;;;;;;12.79;100.00;95420.59;1028483;28;20269;-64
2021/08/05 02:17:40;;;;;;;18.20;10.50;;;;;;;12.84;100.00;95422.34;1031048;28;20261;-64
2021/08/05 02:18:10;;;;;;;12.40;9.25;;;;;;;12.84;100.00;95420.50;1035403;28;20033;-64
2021/08/05 02:18:45;;;;;;;18.45;9.85;;;;;;;12.83;100.00;95421.56;1035388;28;20272;-64
2021/08/05 02:19:15;;;;;;;16.05;9.68;;;;;;;12.84;100.00;95422.34;1035115;28;20132;-64
2021/08/05 02:19:46;;;;;;;12.57;8.55;;;;;;;12.85;100.00;95418.69;1038657;28;20974;-64
2021/08/05 02:20:16;;;;;;;15.63;8.55;;;;;;;12.86;100.00;95422.88;1031035;28;20019;-64
2021/08/05 02:20:47;;;;;;;16.08;9.35;;;;;;;12.85;100.00;95422.09;1035251;28;20419;-64
2021/08/05 02:21:21;;;;;;;16.67;9.50;;;;;;;12.89;100.00;95420.44;1042064;28;20633;-64
2021/08/05 02:21:51;;;;;;;18.30;9.35;;;;;;;12.87;100.00;95424.44;1045291;28;20075;-64
2021/08/05 02:22:22;;;;;;;16.70;9.65;;;;;;;12.87;100.00;95419.16;1034676;28;20356;-64
2021/08/05 02:22:52;;;;;;;13.85;9.50;;;;;;;12.88;100.00;95421.53;1038006;28;20030;-63
2021/08/05 02:23:23;;;;;;;14.43;9.00;;;;;;;12.79;100.00;95412.69;1030978;28;20027;-61
2021/08/05 02:23:56;;;;;;;14.18;9.25;;;;;;;12.86;100.00;95428.91;1031230;28;20113;-64
2021/08/05 02:24:30;;;;;;;18.45;9.95;;;;;;;12.86;100.00;95418.38;1030364;28;20574;-62
2021/08/05 02:25:01;;;;;;;18.42;10.15;;;;;;;12.88;100.00;95424.16;1027832;28;20361;-64
2021/08/05 02:25:32;;;;;;;16.83;10.20;;;;;;;12.86;100.00;95423.66;1027161;28;21006;-61
2021/08/05 02:26:02;;;;;;;13.95;9.50;;;;;;;12.90;100.00;95423.88;1023891;28;20270;-64
2021/08/05 02:26:33;;;;;;;19.40;9.63;;;;;;;12.90;100.00;95419.38;1027196;28;20037;-65
2021/08/05 02:27:03;;;;;;;17.52;9.68;;;;;;;12.88;100.00;95421.53;1035933;28;20426;-64
2021/08/05 02:27:34;;;;;;;19.48;10.18;;;;;;;12.84;100.00;95423.13;1039406;28;20538;-64
2021/08/05 02:28:05;;;;;;;15.75;10.43;;;;;;;12.79;100.00;95411.91;1035509;28;20018;-63
2021/08/05 02:28:35;;;;;;;16.30;10.45;;;;;;;12.83;100.00;95413.69;1027083;28;20027;-64
2021/08/05 02:29:05;;;;;;;21.80;11.98;;;;;;;12.86;100.00;95409.69;1034896;28;20033;-64